createdAt,value
2018-04-24T00:02:28.059Z,12.42
2018-04-24T00:04:56.483Z,12.24
2018-04-24T00:07:25.132Z,12.31
2018-04-24T00:09:53.667Z,12.20
2018-04-24T00:12:21.992Z,12.15
2018-04-24T00:14:50.345Z,12.22
2018-04-24T00:17:19.541Z,11.99
2018-04-24T00:19:47.860Z,11.99
2018-04-24T00:22:16.360Z,12.17
2018-04-24T00:24:44.762Z,12.00
2018-04-24T00:27:13.252Z,12.24
2018-04-24T00:29:41.867Z,11.86
2018-04-24T00:32:10.943Z,11.82
2018-04-24T00:34:40.151Z,11.67
2018-04-24T00:37:09.277Z,11.69
2018-04-24T00:39:37.614Z,11.59
2018-04-24T00:42:05.940Z,11.54
2018-04-24T00:44:34.543Z,11.43
2018-04-24T00:47:02.847Z,11.11
2018-04-24T00:49:31.250Z,11.35
2018-04-24T00:52:00.100Z,11.60
2018-04-24T00:54:28.421Z,11.24
2018-04-24T00:56:56.751Z,11.26
2018-04-24T00:59:25.263Z,11.63
2018-04-24T01:01:54.444Z,11.73
2018-04-24T01:04:22.908Z,11.64
2018-04-24T01:06:51.636Z,11.51
2018-04-24T01:09:20.696Z,11.54
2018-04-24T01:11:49.022Z,11.65
2018-04-24T01:14:18.515Z,11.77
2018-04-24T01:16:47.628Z,11.91
2018-04-24T01:19:16.364Z,11.69
2018-04-24T01:21:44.720Z,11.37
2018-04-24T01:24:13.048Z,11.13
2018-04-24T01:26:41.345Z,11.06
2018-04-24T01:29:09.775Z,11.17
2018-04-24T01:31:58.657Z,11.26
2018-04-24T01:34:28.052Z,11.49
2018-04-24T01:36:56.380Z,11.29
2018-04-24T01:39:24.749Z,11.37
2018-04-24T01:41:53.143Z,11.38
2018-04-24T01:44:21.450Z,11.17
2018-04-24T01:46:49.820Z,11.16
2018-04-24T01:49:18.166Z,11.40
2018-04-24T01:51:46.512Z,11.31
2018-04-24T01:54:15.637Z,11.49
2018-04-24T01:56:44.170Z,11.70
2018-04-24T01:59:13.212Z,11.59
2018-04-24T02:01:41.529Z,11.62
2018-04-24T02:04:09.907Z,11.65
2018-04-24T02:06:38.323Z,11.76
2018-04-24T02:09:07.416Z,11.88
2018-04-24T02:11:35.755Z,11.86
2018-04-24T02:14:04.080Z,11.78
2018-04-24T02:16:33.187Z,11.87
2018-04-24T02:19:02.516Z,11.64
2018-04-24T02:21:30.875Z,11.57
2018-04-24T02:23:59.212Z,11.43
2018-04-24T02:26:27.932Z,11.51
2018-04-24T02:28:57.019Z,11.32
2018-04-24T02:31:26.135Z,11.19
2018-04-24T02:33:54.520Z,11.30
2018-04-24T02:36:22.873Z,11.18
2018-04-24T02:38:51.983Z,11.28
2018-04-24T02:41:20.546Z,11.56
2018-04-24T02:43:48.872Z,11.80
2018-04-24T02:46:17.204Z,11.71
2018-04-24T02:48:45.591Z,11.72
2018-04-24T02:51:14.035Z,12.04
2018-04-24T02:53:42.388Z,12.18
2018-04-24T02:56:10.777Z,12.14
2018-04-24T02:58:39.855Z,12.15
2018-04-24T03:01:08.187Z,12.07
2018-04-24T03:03:36.674Z,11.97
2018-04-24T03:06:05.020Z,12.05
2018-04-24T03:08:33.372Z,12.13
2018-04-24T03:11:01.735Z,12.29
2018-04-24T03:13:30.871Z,12.30
2018-04-24T03:15:59.974Z,12.45
2018-04-24T03:18:28.305Z,12.54
2018-04-24T03:20:57.398Z,12.47
2018-04-24T03:23:26.506Z,12.77
2018-04-24T03:25:55.491Z,12.87
2018-04-24T03:28:25.143Z,12.98
2018-04-24T03:30:53.483Z,12.84
2018-04-24T03:33:22.616Z,12.79
2018-04-24T03:35:50.963Z,12.58
2018-04-24T03:38:19.333Z,12.80
2018-04-24T03:40:48.460Z,12.81
2018-04-24T03:43:16.806Z,12.91
2018-04-24T03:45:45.900Z,13.13
2018-04-24T03:48:15.298Z,13.19
2018-04-24T03:50:44.404Z,13.02
2018-04-24T03:53:13.472Z,13.17
2018-04-24T03:55:41.803Z,13.16
2018-04-24T03:58:10.155Z,12.99
2018-04-24T04:00:39.240Z,13.08
2018-04-24T04:03:07.597Z,13.25
2018-04-24T04:05:35.942Z,13.13
2018-04-24T04:08:04.279Z,13.04
2018-04-24T04:10:33.606Z,13.16
2018-04-24T04:13:01.961Z,13.18
2018-04-24T04:15:31.043Z,13.09
2018-04-24T04:18:16.930Z,13.03
2018-04-24T04:21:02.889Z,13.38
2018-04-24T04:23:48.851Z,13.19
2018-04-24T04:26:17.203Z,13.10
2018-04-24T04:28:46.626Z,13.33
2018-04-24T04:31:15.432Z,13.39
2018-04-24T04:33:43.755Z,13.46
2018-04-24T04:36:12.069Z,13.45
2018-04-24T04:38:41.198Z,13.31
2018-04-24T04:41:09.537Z,13.13
2018-04-24T04:43:37.895Z,13.33
2018-04-24T04:46:06.268Z,13.04
2018-04-24T04:48:34.627Z,13.30
2018-04-24T04:51:02.955Z,13.40
2018-04-24T04:53:32.297Z,13.73
2018-04-24T04:56:00.663Z,13.84
2018-04-24T04:58:29.056Z,13.78
2018-04-24T05:00:57.471Z,13.49
2018-04-24T05:03:25.814Z,13.66
2018-04-24T05:05:54.187Z,13.62
2018-04-24T05:08:22.575Z,13.68
2018-04-24T05:10:50.913Z,13.79
2018-04-24T05:13:20.016Z,13.97
2018-04-24T05:15:48.470Z,13.58
2018-04-24T05:18:16.814Z,13.46
2018-04-24T05:20:45.199Z,13.66
2018-04-24T05:23:13.589Z,13.45
2018-04-24T05:25:41.909Z,13.54
2018-04-24T05:28:10.224Z,13.46
2018-04-24T05:30:38.821Z,13.66
2018-04-24T05:33:07.146Z,13.51
2018-04-24T05:35:35.505Z,13.46
2018-04-24T05:38:03.999Z,13.54
2018-04-24T05:40:32.329Z,13.69
2018-04-24T05:43:00.670Z,13.66
2018-04-24T05:45:29.890Z,13.33
2018-04-24T05:47:58.213Z,13.39
2018-04-24T05:50:26.560Z,13.82
2018-04-24T05:52:55.006Z,13.84
2018-04-24T05:55:23.282Z,13.85
2018-04-24T05:57:52.525Z,13.95
2018-04-24T06:00:21.163Z,13.91
2018-04-24T06:02:49.553Z,14.10
2018-04-24T06:05:17.883Z,14.55
2018-04-24T06:07:46.245Z,14.32
2018-04-24T06:10:14.608Z,14.78
2018-04-24T06:12:42.952Z,15.34
2018-04-24T06:15:11.397Z,15.41
2018-04-24T06:17:39.643Z,14.69
2018-04-24T06:20:07.967Z,14.58
2018-04-24T06:22:36.610Z,14.59
2018-04-24T06:25:05.730Z,14.31
2018-04-24T06:27:34.078Z,14.27
2018-04-24T06:30:02.507Z,14.07
2018-04-24T06:32:30.844Z,14.53
2018-04-24T06:34:59.215Z,14.80
2018-04-24T06:37:28.386Z,14.83
2018-04-24T06:39:56.722Z,14.72
2018-04-24T06:42:25.065Z,15.20
2018-04-24T06:44:54.683Z,15.42
2018-04-24T06:47:23.018Z,15.42
2018-04-24T06:49:51.364Z,15.49
2018-04-24T06:52:19.707Z,15.34
2018-04-24T06:54:48.806Z,15.27
2018-04-24T06:57:17.165Z,15.18
2018-04-24T06:59:46.342Z,14.96
2018-04-24T07:02:14.728Z,15.01
2018-04-24T07:04:43.089Z,14.55
2018-04-24T07:07:11.812Z,14.84
2018-04-24T07:09:40.172Z,14.96
2018-04-24T07:12:08.543Z,14.84
2018-04-24T07:14:36.899Z,15.29
2018-04-24T07:17:05.258Z,15.34
2018-04-24T07:19:33.621Z,15.31
2018-04-24T07:22:01.977Z,14.95
2018-04-24T07:24:30.403Z,15.29
2018-04-24T07:26:58.783Z,15.06
2018-04-24T07:29:27.362Z,14.88
2018-04-24T07:31:55.727Z,14.91
2018-04-24T07:34:24.826Z,15.16
2018-04-24T07:36:53.937Z,14.88
2018-04-24T07:39:22.301Z,14.75
2018-04-24T07:41:51.455Z,14.59
2018-04-24T07:44:19.876Z,14.99
2018-04-24T07:46:48.997Z,15.01
2018-04-24T07:49:17.317Z,15.02
2018-04-24T07:51:45.869Z,15.01
2018-04-24T07:54:14.245Z,14.90
2018-04-24T07:56:42.622Z,14.51
2018-04-24T07:59:11.037Z,14.95
2018-04-24T08:01:39.410Z,14.71
2018-04-24T08:04:07.938Z,15.15
2018-04-24T08:06:37.093Z,15.14
2018-04-24T08:09:08.209Z,14.94
2018-04-24T08:11:36.559Z,15.05
2018-04-24T08:14:06.209Z,14.90
2018-04-24T08:16:34.649Z,14.76
2018-04-24T08:19:02.943Z,14.67
2018-04-24T08:21:31.335Z,14.91
2018-04-24T08:23:59.680Z,14.86
2018-04-24T08:26:28.768Z,15.20
2018-04-24T08:28:57.144Z,14.76
2018-04-24T08:31:25.832Z,14.56
2018-04-24T08:33:55.000Z,14.78
2018-04-24T08:36:23.724Z,14.86
2018-04-24T08:38:52.064Z,14.85
2018-04-24T08:41:20.431Z,14.80
2018-04-24T08:43:48.820Z,14.88
2018-04-24T08:46:17.174Z,14.70
2018-04-24T08:48:45.503Z,14.73
2018-04-24T08:51:13.888Z,14.75
2018-04-24T08:53:42.250Z,14.49
2018-04-24T08:56:10.606Z,14.21
2018-04-24T08:58:39.265Z,14.77
2018-04-24T09:01:07.689Z,15.20
2018-04-24T09:03:36.040Z,14.91
2018-04-24T09:06:04.462Z,15.14
2018-04-24T09:08:32.853Z,14.80
2018-04-24T09:11:01.201Z,14.89
2018-04-24T09:13:30.336Z,14.88
2018-04-24T09:15:58.682Z,14.87
2018-04-24T09:18:27.000Z,14.90
2018-04-24T09:20:56.609Z,15.53
2018-04-24T09:23:25.135Z,15.09
2018-04-24T09:25:53.483Z,15.33
2018-04-24T09:28:21.899Z,15.31
2018-04-24T09:30:51.004Z,15.20
2018-04-24T09:33:19.464Z,15.12
2018-04-24T09:35:47.846Z,14.80
2018-04-24T09:38:16.231Z,15.00
2018-04-24T09:40:44.601Z,15.26
2018-04-24T09:43:13.165Z,15.20
2018-04-24T09:45:41.532Z,15.38
2018-04-24T09:48:10.656Z,15.34
2018-04-24T09:50:39.048Z,15.57
2018-04-24T09:53:07.386Z,15.59
2018-04-24T09:55:36.501Z,15.64
2018-04-24T09:58:04.863Z,15.66
2018-04-24T10:00:37.036Z,15.20
2018-04-24T10:03:06.358Z,15.24
2018-04-24T10:05:34.719Z,15.27
2018-04-24T10:08:03.801Z,15.46
2018-04-24T10:10:32.939Z,15.30
2018-04-24T10:13:01.310Z,15.58
2018-04-24T10:15:30.403Z,15.79
2018-04-24T10:17:58.788Z,15.70
2018-04-24T10:20:27.149Z,15.74
2018-04-24T10:22:55.580Z,15.75
2018-04-24T10:25:24.363Z,15.91
2018-04-24T10:27:52.664Z,15.87
2018-04-24T10:30:21.025Z,15.93
2018-04-24T10:32:50.179Z,15.73
2018-04-24T10:35:18.930Z,15.68
2018-04-24T10:37:47.356Z,15.76
2018-04-24T10:40:15.811Z,15.96
2018-04-24T10:42:44.103Z,15.61
2018-04-24T10:45:12.453Z,15.67
2018-04-24T10:47:41.099Z,15.66
2018-04-24T10:50:09.432Z,15.85
2018-04-24T10:52:38.560Z,15.68
2018-04-24T10:55:06.954Z,15.92
2018-04-24T10:57:35.294Z,15.96
2018-04-24T11:00:03.632Z,15.51
2018-04-24T11:02:32.016Z,15.67
2018-04-24T11:05:01.129Z,16.05
2018-04-24T11:07:29.460Z,16.02
2018-04-24T11:09:58.092Z,16.13
2018-04-24T11:12:27.282Z,16.44
2018-04-24T11:14:55.616Z,16.71
2018-04-24T11:17:24.070Z,16.57
2018-04-24T11:19:52.414Z,16.25
2018-04-24T11:22:20.724Z,15.86
2018-04-24T11:24:49.832Z,15.56
2018-04-24T11:27:18.936Z,16.08
2018-04-24T11:29:47.285Z,16.17
2018-04-24T11:32:15.886Z,16.09
2018-04-24T11:34:45.013Z,16.60
2018-04-24T11:37:13.339Z,17.21
2018-04-24T11:39:41.724Z,17.32
2018-04-24T11:42:10.823Z,17.08
2018-04-24T11:44:39.954Z,17.27
2018-04-24T11:47:08.318Z,17.20
2018-04-24T11:49:37.441Z,16.69
2018-04-24T11:52:05.779Z,16.66
2018-04-24T11:54:35.128Z,16.78
2018-04-24T11:57:04.313Z,17.11
2018-04-24T11:59:32.602Z,17.04
2018-04-24T12:02:00.980Z,16.89
2018-04-24T12:04:29.359Z,16.71
2018-04-24T12:06:57.706Z,16.67
2018-04-24T12:09:26.869Z,16.65
2018-04-24T12:11:55.264Z,16.68
2018-04-24T12:14:23.601Z,16.65
2018-04-24T12:16:52.256Z,16.51
2018-04-24T12:19:20.608Z,16.46
2018-04-24T12:21:48.926Z,16.56
2018-04-24T12:24:17.288Z,16.58
2018-04-24T12:26:46.392Z,16.57
2018-04-24T12:29:14.717Z,16.86
2018-04-24T12:31:43.121Z,16.23
2018-04-24T12:34:11.479Z,15.93
2018-04-24T12:36:39.845Z,15.99
2018-04-24T12:39:08.689Z,15.77
2018-04-24T12:41:37.046Z,16.28
2018-04-24T12:44:05.389Z,16.44
2018-04-24T12:46:33.803Z,16.69
2018-04-24T12:49:02.158Z,16.93
2018-04-24T12:51:30.466Z,16.50
2018-04-24T12:53:58.844Z,16.19
2018-04-24T12:56:27.187Z,16.53
2018-04-24T12:58:55.545Z,16.69
2018-04-24T13:01:24.220Z,16.40
2018-04-24T13:03:52.662Z,16.35
2018-04-24T13:06:20.938Z,16.84
2018-04-24T13:08:49.327Z,16.95
2018-04-24T13:11:18.447Z,16.43
2018-04-24T13:13:46.899Z,16.70
2018-04-24T13:16:15.283Z,16.48
2018-04-24T13:18:43.632Z,16.32
2018-04-24T13:21:11.995Z,16.11
2018-04-24T13:23:40.583Z,16.46
2018-04-24T13:26:09.036Z,16.61
2018-04-24T13:28:38.138Z,16.55
2018-04-24T13:31:06.519Z,16.85
2018-04-24T13:33:34.841Z,16.80
2018-04-24T13:36:03.193Z,16.27
2018-04-24T13:38:31.970Z,15.57
2018-04-24T13:41:00.301Z,15.43
2018-04-24T13:43:28.622Z,15.96
2018-04-24T13:45:57.141Z,16.13
2018-04-24T13:48:25.487Z,16.17
2018-04-24T13:50:53.816Z,15.91
2018-04-24T13:53:22.189Z,16.21
2018-04-24T13:55:50.525Z,16.42
2018-04-24T13:58:18.867Z,16.23
2018-04-24T14:00:47.310Z,16.02
2018-04-24T14:03:16.368Z,16.17
2018-04-24T14:05:45.482Z,16.20
2018-04-24T14:08:14.251Z,16.48
2018-04-24T14:10:43.352Z,16.54
2018-04-24T14:13:11.666Z,16.42
2018-04-24T14:15:40.038Z,16.22
2018-04-24T14:18:08.367Z,16.26
2018-04-24T14:20:36.710Z,16.32
2018-04-24T14:23:05.072Z,16.24
2018-04-24T14:25:33.446Z,16.05
2018-04-24T14:28:01.791Z,16.18
2018-04-24T14:30:31.141Z,16.07
2018-04-24T14:32:59.500Z,16.24
2018-04-24T14:35:27.868Z,16.09
2018-04-24T14:37:56.236Z,16.11
2018-04-24T14:40:25.632Z,16.22
2018-04-24T14:42:54.734Z,16.20
2018-04-24T14:45:23.868Z,16.25
2018-04-24T14:47:52.209Z,16.07
2018-04-24T14:50:20.545Z,16.01
2018-04-24T14:52:49.004Z,16.05
2018-04-24T14:55:17.367Z,16.27
2018-04-24T14:57:45.688Z,16.11
2018-04-24T15:00:14.043Z,16.06
2018-04-24T15:02:42.406Z,15.76
2018-04-24T15:05:10.779Z,15.55
2018-04-24T15:07:39.166Z,15.65
2018-04-24T15:10:07.496Z,15.55
2018-04-24T15:12:35.860Z,15.41
2018-04-24T15:15:04.714Z,15.23
2018-04-24T15:17:33.098Z,15.40
2018-04-24T15:20:01.434Z,15.47
2018-04-24T15:22:30.571Z,15.51
2018-04-24T15:24:58.928Z,15.37
2018-04-24T15:27:28.083Z,15.58
2018-04-24T15:29:56.464Z,15.81
2018-04-24T15:32:25.572Z,15.87
2018-04-24T15:34:53.989Z,15.57
2018-04-24T15:37:23.270Z,15.55
2018-04-24T15:39:52.379Z,15.80
2018-04-24T15:42:20.707Z,15.58
2018-04-24T15:44:49.081Z,15.85
2018-04-24T15:47:18.202Z,15.91
2018-04-24T15:49:46.545Z,16.31
2018-04-24T15:52:14.926Z,16.51
2018-04-24T15:54:43.254Z,16.37
2018-04-24T15:57:11.616Z,16.58
2018-04-24T15:59:40.421Z,16.60
2018-04-24T16:02:08.799Z,16.47
2018-04-24T16:04:37.110Z,16.52
2018-04-24T16:07:05.467Z,16.52
2018-04-24T16:09:33.840Z,16.35
2018-04-24T16:12:03.029Z,16.35
2018-04-24T16:14:31.439Z,16.44
2018-04-24T16:17:00.537Z,16.68
2018-04-24T16:19:28.955Z,16.54
2018-04-24T16:21:57.804Z,16.60
2018-04-24T16:24:26.179Z,16.68
2018-04-24T16:26:54.580Z,16.92
2018-04-24T16:29:23.023Z,16.99
2018-04-24T16:31:51.392Z,17.00
2018-04-24T16:34:19.728Z,16.84
2018-04-24T16:36:48.489Z,16.97
2018-04-24T16:39:16.828Z,16.92
2018-04-24T16:41:45.172Z,17.03
2018-04-24T16:44:13.735Z,16.79
2018-04-24T16:46:42.090Z,16.57
2018-04-24T16:49:10.426Z,16.52
2018-04-24T16:51:38.835Z,16.26
2018-04-24T16:54:07.143Z,15.77
2018-04-24T16:56:36.279Z,15.76
2018-04-24T16:59:04.679Z,15.81
2018-04-24T17:01:33.029Z,16.02
2018-04-24T17:04:01.477Z,16.25
2018-04-24T17:06:31.112Z,16.57
2018-04-24T17:08:59.463Z,16.20
2018-04-24T17:11:28.561Z,16.19
2018-04-24T17:13:57.690Z,16.11
2018-04-24T17:16:26.050Z,16.23
2018-04-24T17:18:54.409Z,16.27
2018-04-24T17:21:23.558Z,16.07
2018-04-24T17:23:51.911Z,16.36
2018-04-24T17:26:20.268Z,16.36
2018-04-24T17:28:48.856Z,16.26
2018-04-24T17:31:17.952Z,16.29
2018-04-24T17:33:46.316Z,16.31
2018-04-24T17:36:14.759Z,16.28
2018-04-24T17:38:43.075Z,16.11
2018-04-24T17:41:11.432Z,16.33
2018-04-24T17:43:39.942Z,16.55
2018-04-24T17:46:09.035Z,16.60
2018-04-24T17:48:38.173Z,16.67
2018-04-24T17:51:06.689Z,16.14
2018-04-24T17:53:35.081Z,16.01
2018-04-24T17:56:03.428Z,16.11
2018-04-24T17:58:32.801Z,16.08
2018-04-24T18:01:01.912Z,16.23
2018-04-24T18:03:30.262Z,16.34
2018-04-24T18:05:58.687Z,16.32
2018-04-24T18:08:27.028Z,16.25
2018-04-24T18:10:56.117Z,16.32
2018-04-24T18:13:24.846Z,16.53
2018-04-24T18:15:53.205Z,16.25
2018-04-24T18:18:21.529Z,16.03
2018-04-24T18:20:49.909Z,16.13
2018-04-24T18:23:18.213Z,16.09
2018-04-24T18:25:46.582Z,15.93
2018-04-24T18:28:14.973Z,16.02
2018-04-24T18:30:44.099Z,16.08
2018-04-24T18:33:12.501Z,15.99
2018-04-24T18:35:40.960Z,15.44
2018-04-24T18:38:09.328Z,15.62
2018-04-24T18:40:38.445Z,15.68
2018-04-24T18:43:06.812Z,15.56
2018-04-24T18:45:35.443Z,15.74
2018-04-24T18:48:03.800Z,16.15
2018-04-24T18:50:32.227Z,16.21
2018-04-24T18:53:00.564Z,15.82
2018-04-24T18:55:28.951Z,15.83
2018-04-24T18:57:57.466Z,15.91
2018-04-24T19:00:25.815Z,15.91
2018-04-24T19:02:54.153Z,15.89
2018-04-24T19:05:23.299Z,15.87
2018-04-24T19:07:51.711Z,15.86
2018-04-24T19:10:20.200Z,15.97
2018-04-24T19:12:49.346Z,16.16
2018-04-24T19:15:17.727Z,16.10
2018-04-24T19:17:46.073Z,16.30
2018-04-24T19:20:14.740Z,16.06
2018-04-24T19:22:43.840Z,16.23
2018-04-24T19:25:18.345Z,16.21
2018-04-24T19:27:46.707Z,16.44
2018-04-24T19:30:15.035Z,16.48
2018-04-24T19:32:43.450Z,16.58
2018-04-24T19:35:11.872Z,16.46
2018-04-24T19:37:40.242Z,16.58
2018-04-24T19:40:14.361Z,16.58
2018-04-24T19:42:42.702Z,16.59
2018-04-24T19:45:11.047Z,16.79
2018-04-24T19:47:39.433Z,16.88
2018-04-24T19:50:13.335Z,16.56
2018-04-24T19:52:41.751Z,16.43
2018-04-24T19:55:15.576Z,16.44
2018-04-24T19:57:44.135Z,15.61
2018-04-24T20:00:13.232Z,15.45
2018-04-24T20:02:41.636Z,15.63
2018-04-24T20:05:10.091Z,15.93
2018-04-24T20:07:38.497Z,15.83
2018-04-24T20:10:06.902Z,16.02
2018-04-24T20:12:36.085Z,16.02
2018-04-24T20:15:04.467Z,16.08
2018-04-24T20:17:32.887Z,15.85
2018-04-24T20:20:01.571Z,15.94
2018-04-24T20:22:30.725Z,16.12
2018-04-24T20:24:59.062Z,16.15
2018-04-24T20:27:27.423Z,16.13
2018-04-24T20:29:55.763Z,15.97
2018-04-24T20:32:24.242Z,16.15
2018-04-24T20:34:52.533Z,16.10
2018-04-24T20:37:20.912Z,15.79
2018-04-24T20:39:49.249Z,15.96
2018-04-24T20:42:17.715Z,16.14
2018-04-24T20:44:46.066Z,15.98
2018-04-24T20:47:15.274Z,16.05
2018-04-24T20:49:43.627Z,15.96
2018-04-24T20:52:12.005Z,15.82
2018-04-24T20:54:40.365Z,15.85
2018-04-24T20:57:08.745Z,15.83
2018-04-24T20:59:37.166Z,15.67
2018-04-24T21:02:05.526Z,15.88
2018-04-24T21:04:34.030Z,15.95
2018-04-24T21:07:02.372Z,16.02
2018-04-24T21:09:30.713Z,16.20
2018-04-24T21:11:59.066Z,16.13
2018-04-24T21:14:27.426Z,16.09
2018-04-24T21:16:55.802Z,16.15
2018-04-24T21:19:24.174Z,16.14
2018-04-24T21:21:53.336Z,16.28
2018-04-24T21:24:21.723Z,16.32
2018-04-24T21:26:50.256Z,16.44
2018-04-24T21:29:19.355Z,16.38
2018-04-24T21:31:49.364Z,16.37
2018-04-24T21:34:17.755Z,16.34
2018-04-24T21:36:46.899Z,16.24
2018-04-24T21:39:15.218Z,16.24
2018-04-24T21:41:43.580Z,15.94
2018-04-24T21:44:11.937Z,15.93
2018-04-24T21:46:40.287Z,15.94
2018-04-24T21:49:09.147Z,15.80
2018-04-24T21:51:37.490Z,15.78
2018-04-24T21:54:05.965Z,15.79
2018-04-24T21:56:34.343Z,15.74
2018-04-24T21:59:02.698Z,15.63
2018-04-24T22:01:31.049Z,15.60
2018-04-24T22:04:00.292Z,15.63
2018-04-24T22:06:28.650Z,15.50
2018-04-24T22:08:57.060Z,15.39
2018-04-24T22:11:25.744Z,15.39
2018-04-24T22:13:54.097Z,15.22
2018-04-24T22:16:23.179Z,15.08
2018-04-24T22:18:52.353Z,15.15
2018-04-24T22:21:20.709Z,15.12
2018-04-24T22:23:49.039Z,15.29
2018-04-24T22:26:18.175Z,15.18
2018-04-24T22:28:46.520Z,15.13
2018-04-24T22:31:14.892Z,14.99
2018-04-24T22:33:44.068Z,14.84
2018-04-24T22:36:12.455Z,14.86
2018-04-24T22:38:41.599Z,14.82
2018-04-24T22:41:10.107Z,14.80
2018-04-24T22:43:38.465Z,14.83
2018-04-24T22:46:06.800Z,14.85
2018-04-24T22:48:35.931Z,14.93
2018-04-24T22:51:04.563Z,14.85
2018-04-24T22:53:32.911Z,14.96
2018-04-24T22:56:01.500Z,14.98
2018-04-24T22:58:29.820Z,14.93
2018-04-24T23:00:58.140Z,14.88
2018-04-24T23:03:26.523Z,14.92
2018-04-24T23:05:54.880Z,15.12
2018-04-24T23:08:23.261Z,15.07
2018-04-24T23:11:09.511Z,15.02
2018-04-24T23:13:55.399Z,14.98
2018-04-24T23:16:41.224Z,15.04
2018-04-24T23:19:27.901Z,15.07
2018-04-24T23:21:55.524Z,15.02
2018-04-24T23:24:23.877Z,15.11
2018-04-24T23:26:52.955Z,15.25
2018-04-24T23:29:21.957Z,15.29
2018-04-24T23:31:50.313Z,15.32
2018-04-24T23:34:18.636Z,15.24
2018-04-24T23:36:46.985Z,15.25
2018-04-24T23:39:15.326Z,15.32
2018-04-24T23:41:43.659Z,15.33
2018-04-24T23:44:12.020Z,15.22
2018-04-24T23:46:40.377Z,15.16
2018-04-24T23:49:08.700Z,15.23
2018-04-24T23:51:37.256Z,15.07
2018-04-24T23:54:05.602Z,14.94
2018-04-24T23:56:35.639Z,15.03
2018-04-24T23:59:04.000Z,14.99
